createdAt,value
2022-08-17T00:00:43.004Z,67.75
2022-08-17T00:01:22.527Z,67.75
2022-08-17T00:02:26.167Z,67.98
2022-08-17T00:03:22.355Z,67.98
2022-08-17T00:04:20.602Z,68.18
2022-08-17T00:05:20.612Z,68.18
2022-08-17T00:06:20.592Z,68.18
2022-08-17T00:07:20.570Z,68.29
2022-08-17T00:08:20.551Z,68.38
2022-08-17T00:09:20.542Z,68.59
2022-08-17T00:10:20.542Z,68.82
2022-08-17T00:11:20.514Z,68.72
2022-08-17T00:12:41.140Z,68.72
2022-08-17T00:13:21.483Z,68.72
2022-08-17T00:14:20.463Z,68.72
2022-08-17T00:15:20.473Z,68.72
2022-08-17T00:16:20.444Z,68.72
2022-08-17T00:17:21.434Z,68.72
2022-08-17T00:19:01.366Z,68.82
2022-08-17T00:19:21.404Z,68.92
2022-08-17T00:20:20.412Z,68.92
2022-08-17T00:21:23.760Z,68.92
2022-08-17T00:22:32.178Z,68.92
2022-08-17T00:23:21.353Z,69.02
2022-08-17T00:24:20.334Z,69.02
2022-08-17T00:25:20.335Z,69.12
2022-08-17T00:26:43.489Z,69.22
2022-08-17T00:27:21.294Z,69.22
2022-08-17T00:28:20.283Z,69.12
2022-08-17T00:29:20.358Z,69.12
2022-08-17T00:30:20.276Z,69.12
2022-08-17T00:31:20.235Z,69.02
2022-08-17T00:33:11.582Z,69.12
2022-08-17T00:33:21.223Z,69.12
2022-08-17T00:34:20.205Z,69.22
2022-08-17T00:35:20.215Z,69.35
2022-08-17T00:36:20.177Z,69.35
2022-08-17T00:37:20.166Z,69.35
2022-08-17T00:38:20.154Z,69.35
2022-08-17T00:39:20.135Z,69.35
2022-08-17T00:40:20.130Z,69.45
2022-08-17T00:41:20.122Z,69.45
2022-08-17T00:42:20.095Z,69.56
2022-08-17T00:43:20.086Z,69.56
2022-08-17T00:44:20.056Z,69.65
2022-08-17T00:45:20.067Z,69.76
2022-08-17T00:46:20.047Z,69.96
2022-08-17T00:47:20.036Z,69.96
2022-08-17T00:48:29.293Z,69.96
2022-08-17T00:49:21.002Z,70.06
2022-08-17T00:50:20.006Z,70.19
2022-08-17T00:51:19.972Z,70.26
2022-08-17T00:52:19.967Z,70.29
2022-08-17T00:53:19.946Z,70.19
2022-08-17T00:54:19.937Z,70.29
2022-08-17T00:55:19.997Z,70.39
2022-08-17T00:56:19.934Z,70.39
2022-08-17T00:57:19.888Z,70.39
2022-08-17T00:58:19.887Z,70.50
2022-08-17T00:59:20.860Z,70.50
2022-08-17T01:00:19.860Z,70.50
2022-08-17T01:01:21.209Z,70.59
2022-08-17T01:02:19.838Z,70.70
2022-08-17T01:03:19.789Z,70.59
2022-08-17T01:04:19.807Z,70.59
2022-08-17T01:05:19.781Z,70.59
2022-08-17T01:06:19.797Z,70.59
2022-08-17T01:07:19.758Z,70.59
2022-08-17T01:08:19.751Z,70.79
2022-08-17T01:09:19.719Z,70.79
2022-08-17T01:10:59.578Z,70.83
2022-08-17T01:11:20.721Z,70.73
2022-08-17T01:12:19.690Z,70.83
2022-08-17T01:13:19.670Z,70.73
2022-08-17T01:14:19.662Z,70.70
2022-08-17T01:15:19.760Z,70.59
2022-08-17T01:16:19.801Z,70.70
2022-08-17T01:17:19.628Z,70.70
2022-08-17T01:18:19.610Z,70.70
2022-08-17T01:19:19.591Z,71.09
2022-08-17T01:20:19.600Z,71.40
2022-08-17T01:21:19.574Z,71.73
2022-08-17T01:22:19.550Z,71.94
2022-08-17T01:23:20.783Z,72.03
2022-08-17T01:24:19.531Z,72.37
2022-08-17T01:25:19.533Z,72.37
2022-08-17T01:26:19.503Z,72.47
2022-08-17T01:27:20.529Z,72.27
2022-08-17T01:28:53.030Z,72.17
2022-08-17T01:29:20.463Z,72.17
2022-08-17T01:30:58.172Z,72.07
2022-08-17T01:31:20.432Z,72.07
2022-08-17T01:32:19.422Z,72.07
2022-08-17T01:33:19.410Z,72.07
2022-08-17T01:34:19.411Z,72.07
2022-08-17T01:35:19.413Z,72.07
2022-08-17T01:36:19.353Z,72.11
2022-08-17T01:37:19.356Z,72.20
2022-08-17T01:38:19.342Z,72.31
2022-08-17T01:39:20.323Z,72.41
2022-08-17T01:40:19.333Z,72.61
2022-08-17T01:41:19.303Z,72.61
2022-08-17T01:42:19.276Z,72.71
2022-08-17T01:43:19.274Z,72.74
2022-08-17T01:44:19.254Z,72.74
2022-08-17T01:45:19.246Z,72.85
2022-08-17T01:46:19.241Z,72.81
2022-08-17T01:47:19.211Z,72.81
2022-08-17T01:48:19.202Z,72.81
2022-08-17T01:49:19.193Z,72.81
2022-08-17T01:50:19.196Z,72.61
2022-08-17T01:51:19.184Z,72.51
2022-08-17T01:52:19.142Z,72.51
2022-08-17T01:53:19.134Z,72.41
2022-08-17T01:54:19.115Z,72.51
2022-08-17T01:55:19.113Z,72.41
2022-08-17T01:56:19.105Z,72.41
2022-08-17T01:57:19.087Z,72.31
2022-08-17T01:58:19.066Z,72.20
2022-08-17T01:59:19.046Z,72.11
2022-08-17T02:00:19.036Z,72.11
2022-08-17T02:01:19.081Z,72.11
2022-08-17T02:02:30.265Z,72.20
2022-08-17T02:03:19.997Z,72.31
2022-08-17T02:04:18.976Z,72.51
2022-08-17T02:05:18.974Z,72.74
2022-08-17T02:06:28.009Z,72.94
2022-08-17T02:07:19.945Z,72.94
2022-08-17T02:08:20.335Z,73.05
2022-08-17T02:09:18.968Z,73.05
2022-08-17T02:10:20.321Z,73.05
2022-08-17T02:11:18.906Z,73.05
2022-08-17T02:12:39.469Z,72.94
2022-08-17T02:13:19.858Z,72.94
2022-08-17T02:14:18.840Z,72.94
2022-08-17T02:15:18.828Z,72.85
2022-08-17T02:16:18.828Z,72.74
2022-08-17T02:17:18.806Z,72.74
2022-08-17T02:18:18.787Z,72.71
2022-08-17T02:19:18.787Z,72.94
2022-08-17T02:20:18.758Z,72.91
2022-08-17T02:21:19.768Z,72.94
2022-08-17T02:22:18.729Z,73.05
2022-08-17T02:23:18.718Z,73.05
2022-08-17T02:24:59.932Z,73.05
2022-08-17T02:25:19.688Z,72.85
2022-08-17T02:26:25.693Z,72.64
2022-08-17T02:27:19.680Z,72.31
2022-08-17T02:28:18.668Z,72.20
2022-08-17T02:29:18.657Z,72.20
2022-08-17T02:31:00.912Z,72.20
2022-08-17T02:31:19.636Z,72.31
2022-08-17T02:32:20.830Z,72.51
2022-08-17T02:33:19.584Z,72.54
2022-08-17T02:34:18.570Z,72.54
2022-08-17T02:35:19.377Z,72.74
2022-08-17T02:36:18.579Z,72.85
2022-08-17T02:37:18.537Z,72.85
2022-08-17T02:38:18.502Z,72.85
2022-08-17T02:39:18.509Z,72.85
2022-08-17T02:40:18.487Z,72.74
2022-08-17T02:41:19.491Z,72.74
2022-08-17T02:42:18.481Z,72.85
2022-08-17T02:43:18.442Z,72.74
2022-08-17T02:44:39.057Z,72.85
2022-08-17T02:45:19.421Z,72.74
2022-08-17T02:46:18.409Z,72.74
2022-08-17T02:47:18.442Z,72.74
2022-08-17T02:48:30.955Z,72.64
2022-08-17T02:49:19.371Z,72.74
2022-08-17T02:50:18.351Z,72.74
2022-08-17T02:51:18.341Z,72.74
2022-08-17T02:52:18.341Z,72.74
2022-08-17T02:53:19.312Z,72.85
2022-08-17T02:54:40.002Z,72.85
2022-08-17T02:55:19.292Z,72.85
2022-08-17T02:56:18.269Z,72.85
2022-08-17T02:57:18.272Z,72.85
2022-08-17T02:58:18.240Z,72.74
2022-08-17T02:59:19.233Z,72.94
2022-08-17T03:00:18.221Z,72.94
2022-08-17T03:01:18.256Z,73.05
2022-08-17T03:02:18.193Z,72.94
2022-08-17T03:03:18.182Z,73.05
2022-08-17T03:04:18.154Z,72.94
2022-08-17T03:05:18.157Z,73.05
2022-08-17T03:06:18.133Z,73.05
2022-08-17T03:07:18.172Z,73.14
2022-08-17T03:08:18.117Z,73.14
2022-08-17T03:09:18.133Z,73.35
2022-08-17T03:10:18.075Z,73.55
2022-08-17T03:11:18.061Z,73.65
2022-08-17T03:12:18.073Z,73.65
2022-08-17T03:13:18.042Z,73.65
2022-08-17T03:14:18.016Z,73.45
2022-08-17T03:15:18.016Z,73.55
2022-08-17T03:16:17.994Z,73.65
2022-08-17T03:17:17.994Z,73.65
2022-08-17T03:18:19.191Z,73.55
2022-08-17T03:19:18.966Z,73.35
2022-08-17T03:20:17.936Z,73.35
2022-08-17T03:21:17.934Z,73.35
2022-08-17T03:22:35.877Z,73.25
2022-08-17T03:23:18.907Z,73.25
2022-08-17T03:24:18.875Z,73.25
2022-08-17T03:25:19.524Z,73.35
2022-08-17T03:26:17.855Z,73.45
2022-08-17T03:27:17.874Z,73.45
2022-08-17T03:28:17.828Z,73.45
2022-08-17T03:29:17.827Z,73.45
2022-08-17T03:30:17.805Z,73.55
2022-08-17T03:31:17.795Z,73.55
2022-08-17T03:32:17.793Z,73.65
2022-08-17T03:33:17.777Z,73.75
2022-08-17T03:34:17.756Z,73.95
2022-08-17T03:35:17.845Z,74.05
2022-08-17T03:36:17.716Z,74.05
2022-08-17T03:37:17.741Z,73.95
2022-08-17T03:38:17.698Z,73.95
2022-08-17T03:39:17.690Z,73.95
2022-08-17T03:40:17.669Z,74.05
2022-08-17T03:41:18.747Z,73.95
2022-08-17T03:42:32.343Z,73.95
2022-08-17T03:43:18.627Z,73.95
2022-08-17T03:44:17.609Z,73.95
2022-08-17T03:45:17.606Z,73.85
2022-08-17T03:46:33.842Z,73.85
2022-08-17T03:47:18.589Z,73.95
2022-08-17T03:48:17.559Z,73.95
2022-08-17T03:49:17.619Z,74.05
2022-08-17T03:50:17.549Z,74.15
2022-08-17T03:51:17.539Z,74.05
2022-08-17T03:52:17.518Z,74.15
2022-08-17T03:53:17.491Z,74.05
2022-08-17T03:54:17.475Z,74.05
2022-08-17T03:55:17.460Z,74.15
2022-08-17T03:56:17.449Z,74.39
2022-08-17T03:57:17.459Z,74.39
2022-08-17T03:58:17.421Z,74.39
2022-08-17T03:59:20.870Z,74.49
2022-08-17T04:00:18.389Z,74.69
2022-08-17T04:01:17.434Z,74.69
2022-08-17T04:02:17.380Z,74.79
2022-08-17T04:03:17.350Z,74.79
2022-08-17T04:04:17.340Z,74.69
2022-08-17T04:05:17.343Z,74.59
2022-08-17T04:06:17.316Z,74.69
2022-08-17T04:07:17.311Z,74.69
2022-08-17T04:08:17.289Z,74.59
2022-08-17T04:09:17.280Z,74.69
2022-08-17T04:10:17.253Z,74.59
2022-08-17T04:11:17.242Z,74.49
2022-08-17T04:12:17.246Z,74.69
2022-08-17T04:13:24.958Z,74.76
2022-08-17T04:14:18.199Z,74.66
2022-08-17T04:15:17.192Z,74.79
2022-08-17T04:16:17.174Z,74.76
2022-08-17T04:17:17.182Z,74.55
2022-08-17T04:18:17.144Z,74.26
2022-08-17T04:19:17.142Z,74.15
2022-08-17T04:20:17.121Z,74.05
2022-08-17T04:21:17.112Z,74.05
2022-08-17T04:22:32.377Z,73.95
2022-08-17T04:23:18.103Z,73.95
2022-08-17T04:24:17.061Z,74.05
2022-08-17T04:25:17.053Z,74.05
2022-08-17T04:26:52.981Z,74.15
2022-08-17T04:27:18.023Z,74.35
2022-08-17T04:28:17.061Z,74.35
2022-08-17T04:29:17.026Z,74.35
2022-08-17T04:30:16.983Z,74.55
2022-08-17T04:31:16.974Z,74.69
2022-08-17T04:32:18.721Z,74.69
2022-08-17T04:33:17.977Z,74.69
2022-08-17T04:34:19.672Z,74.79
2022-08-17T04:35:16.923Z,74.90
2022-08-17T04:36:16.895Z,74.99
2022-08-17T04:37:16.894Z,74.90
2022-08-17T04:38:16.892Z,74.99
2022-08-17T04:39:16.874Z,75.10
2022-08-17T04:40:16.895Z,74.99
2022-08-17T04:41:16.845Z,74.90
2022-08-17T04:42:16.818Z,74.99
2022-08-17T04:43:18.677Z,75.10
2022-08-17T04:44:27.162Z,75.20
2022-08-17T04:45:17.784Z,75.30
2022-08-17T04:46:16.764Z,75.40
2022-08-17T04:47:16.753Z,75.50
2022-08-17T04:48:16.745Z,75.50
2022-08-17T04:49:16.728Z,75.50
2022-08-17T04:50:16.711Z,75.70
2022-08-17T04:51:16.706Z,75.80
2022-08-17T04:52:29.509Z,76.00
2022-08-17T04:53:17.685Z,75.90
2022-08-17T04:54:16.657Z,75.90
2022-08-17T04:55:16.644Z,75.80
2022-08-17T04:56:18.308Z,75.70
2022-08-17T04:57:16.595Z,75.80
2022-08-17T04:58:16.606Z,75.90
2022-08-17T04:59:16.585Z,76.10
2022-08-17T05:00:16.579Z,76.31
2022-08-17T05:01:16.590Z,76.51
2022-08-17T05:02:17.574Z,76.51
2022-08-17T05:03:16.528Z,76.51
2022-08-17T05:04:33.455Z,76.51
2022-08-17T05:05:17.496Z,76.10
2022-08-17T05:06:16.496Z,75.90
2022-08-17T05:07:21.081Z,75.63
2022-08-17T05:08:17.486Z,75.94
2022-08-17T05:09:16.447Z,76.14
2022-08-17T05:10:16.429Z,76.44
2022-08-17T05:11:16.425Z,76.40
2022-08-17T05:12:16.408Z,76.31
2022-08-17T05:13:16.408Z,76.20
2022-08-17T05:14:16.379Z,76.10
2022-08-17T05:15:16.368Z,75.87
2022-08-17T05:16:16.356Z,75.76
2022-08-17T05:17:16.349Z,75.87
2022-08-17T05:18:16.355Z,75.87
2022-08-17T05:19:16.327Z,75.56
2022-08-17T05:20:16.300Z,75.16
2022-08-17T05:21:16.282Z,74.86
2022-08-17T05:22:16.284Z,74.62
2022-08-17T05:23:16.276Z,74.42
2022-08-17T05:24:17.650Z,74.12
2022-08-17T05:25:17.231Z,74.02
2022-08-17T05:26:26.121Z,74.49
2022-08-17T05:27:19.105Z,73.98
2022-08-17T05:28:16.247Z,74.08
2022-08-17T05:29:16.180Z,73.88
2022-08-17T05:30:16.161Z,73.88
2022-08-17T05:31:16.141Z,73.88
2022-08-17T05:32:38.392Z,73.98
2022-08-17T05:33:17.140Z,73.98
2022-08-17T05:34:16.131Z,73.78
2022-08-17T05:35:16.100Z,73.78
2022-08-17T05:36:42.299Z,73.48
2022-08-17T05:37:17.061Z,73.44
2022-08-17T05:38:16.072Z,73.44
2022-08-17T05:39:17.307Z,73.35
2022-08-17T05:40:16.029Z,73.35
2022-08-17T05:41:16.016Z,73.24
2022-08-17T05:42:16.008Z,73.35
2022-08-17T05:43:15.996Z,73.35
2022-08-17T05:44:15.972Z,72.74
2022-08-17T05:45:15.963Z,72.24
2022-08-17T05:46:16.947Z,71.94
2022-08-17T05:47:15.921Z,71.80
2022-08-17T05:48:15.932Z,71.70
2022-08-17T05:49:15.902Z,71.70
2022-08-17T05:50:18.120Z,72.14
2022-08-17T05:51:16.873Z,72.44
2022-08-17T05:52:19.777Z,72.44
2022-08-17T05:53:15.854Z,72.84
2022-08-17T05:54:15.832Z,73.04
2022-08-17T05:55:15.821Z,72.84
2022-08-17T05:56:30.190Z,73.04
2022-08-17T05:57:16.793Z,73.65
2022-08-17T05:58:15.804Z,73.85
2022-08-17T05:59:15.764Z,73.95
2022-08-17T06:00:15.754Z,74.05
2022-08-17T06:01:15.783Z,74.25
2022-08-17T06:02:15.724Z,74.55
2022-08-17T06:03:15.725Z,74.15
2022-08-17T06:04:15.694Z,73.88
2022-08-17T06:05:15.682Z,73.78
2022-08-17T06:06:15.675Z,73.95
2022-08-17T06:07:15.653Z,74.15
2022-08-17T06:08:15.644Z,74.05
2022-08-17T06:09:15.645Z,74.35
2022-08-17T06:10:15.624Z,74.45
2022-08-17T06:11:15.586Z,73.95
2022-08-17T06:12:19.881Z,73.88
2022-08-17T06:13:15.567Z,74.29
2022-08-17T06:14:15.576Z,74.58
2022-08-17T06:15:15.549Z,73.98
2022-08-17T06:16:33.341Z,73.95
2022-08-17T06:17:16.506Z,73.35
2022-08-17T06:18:19.028Z,72.64
2022-08-17T06:19:15.508Z,73.04
2022-08-17T06:20:15.476Z,73.14
2022-08-17T06:21:15.458Z,73.04
2022-08-17T06:22:15.453Z,73.24
2022-08-17T06:23:15.436Z,72.94
2022-08-17T06:24:15.433Z,72.91
2022-08-17T06:25:15.397Z,72.91
2022-08-17T06:26:15.408Z,73.11
2022-08-17T06:27:15.379Z,73.41
2022-08-17T06:28:15.375Z,73.61
2022-08-17T06:29:18.555Z,73.91
2022-08-17T06:30:15.330Z,73.41
2022-08-17T06:31:15.318Z,73.11
2022-08-17T06:32:15.325Z,73.07
2022-08-17T06:33:15.288Z,73.07
2022-08-17T06:34:15.298Z,72.67
2022-08-17T06:35:15.268Z,72.87
2022-08-17T06:36:16.012Z,72.97
2022-08-17T06:37:15.238Z,72.87
2022-08-17T06:38:38.257Z,71.97
2022-08-17T06:39:16.238Z,72.03
2022-08-17T06:40:15.335Z,71.23
2022-08-17T06:41:15.190Z,71.03
2022-08-17T06:43:00.850Z,71.23
2022-08-17T06:43:16.159Z,70.73
2022-08-17T06:44:43.526Z,71.09
2022-08-17T06:45:16.133Z,70.79
2022-08-17T06:46:15.119Z,70.50
2022-08-17T06:47:15.110Z,70.29
2022-08-17T06:48:16.092Z,70.19
2022-08-17T06:49:15.115Z,70.59
2022-08-17T06:50:15.072Z,69.99
2022-08-17T06:51:15.060Z,69.69
2022-08-17T06:52:45.255Z,69.46
2022-08-17T06:53:16.020Z,68.95
2022-08-17T06:54:15.033Z,68.85
2022-08-17T06:55:18.176Z,68.76
2022-08-17T06:56:14.992Z,69.15
2022-08-17T06:57:14.971Z,69.76
2022-08-17T06:58:16.235Z,69.56
2022-08-17T06:59:14.964Z,69.85
2022-08-17T07:00:14.940Z,69.73
2022-08-17T07:01:15.064Z,69.62
2022-08-17T07:02:14.914Z,69.53
2022-08-17T07:03:14.976Z,69.42
2022-08-17T07:04:14.881Z,69.26
2022-08-17T07:05:14.849Z,68.85
2022-08-17T07:06:14.820Z,69.06
2022-08-17T07:07:14.817Z,69.46
2022-08-17T07:08:14.809Z,69.56
2022-08-17T07:09:14.810Z,69.66
2022-08-17T07:10:14.795Z,69.46
2022-08-17T07:11:14.769Z,69.66
2022-08-17T07:12:14.760Z,69.56
2022-08-17T07:13:14.740Z,69.06
2022-08-17T07:14:17.332Z,69.26
2022-08-17T07:15:14.719Z,69.46
2022-08-17T07:16:14.735Z,70.06
2022-08-17T07:17:14.713Z,70.36
2022-08-17T07:18:14.694Z,70.46
2022-08-17T07:19:14.707Z,70.23
2022-08-17T07:20:14.668Z,70.63
2022-08-17T07:21:17.956Z,70.12
2022-08-17T07:22:14.643Z,69.62
2022-08-17T07:23:14.616Z,69.32
2022-08-17T07:24:29.683Z,69.22
2022-08-17T07:25:16.042Z,69.19
2022-08-17T07:26:14.584Z,69.19
2022-08-17T07:27:14.566Z,69.49
2022-08-17T07:28:14.562Z,69.99
2022-08-17T07:30:19.636Z,70.09
2022-08-17T07:31:19.592Z,70.39
2022-08-17T07:32:19.581Z,70.39
2022-08-17T07:33:19.572Z,70.09
2022-08-17T07:34:19.578Z,69.09
2022-08-17T07:35:20.031Z,68.08
2022-08-17T07:36:19.522Z,68.49
2022-08-17T07:37:19.520Z,68.69
2022-08-17T07:38:24.174Z,69.49
2022-08-17T07:39:20.510Z,70.29
2022-08-17T07:40:19.561Z,69.09
2022-08-17T07:41:19.463Z,68.89
2022-08-17T07:42:19.442Z,69.59
2022-08-17T07:43:22.323Z,69.59
2022-08-17T07:44:19.434Z,69.29
2022-08-17T07:45:19.412Z,69.59
2022-08-17T07:46:19.399Z,69.49
2022-08-17T07:47:19.393Z,69.69
2022-08-17T07:48:19.381Z,69.89
2022-08-17T07:49:19.391Z,70.09
2022-08-17T07:50:22.694Z,69.86
2022-08-17T07:51:20.335Z,69.76
2022-08-17T07:52:48.045Z,68.85
2022-08-17T07:53:20.313Z,68.65
2022-08-17T07:54:19.303Z,68.46
2022-08-17T07:55:19.418Z,68.46
2022-08-17T07:56:19.294Z,69.16
2022-08-17T07:57:19.261Z,68.96
2022-08-17T07:58:19.235Z,69.46
2022-08-17T07:59:23.734Z,70.06
2022-08-17T08:00:19.207Z,70.16
2022-08-17T08:01:19.267Z,69.26
2022-08-17T08:02:19.295Z,69.86
2022-08-17T08:03:19.185Z,70.26
2022-08-17T08:04:21.336Z,70.56
2022-08-17T08:05:46.688Z,70.76
2022-08-17T08:06:20.126Z,70.56
2022-08-17T08:07:19.135Z,69.76
2022-08-17T08:08:19.115Z,69.35
2022-08-17T08:09:19.115Z,69.35
2022-08-17T08:10:19.109Z,69.82
2022-08-17T08:11:19.080Z,70.03
2022-08-17T08:12:19.073Z,69.82
2022-08-17T08:13:19.054Z,69.93
2022-08-17T08:14:19.027Z,70.03
2022-08-17T08:15:19.193Z,69.82
2022-08-17T08:16:19.020Z,69.02
2022-08-17T08:17:19.007Z,69.23
2022-08-17T08:18:18.978Z,70.73
2022-08-17T08:19:21.190Z,70.73
2022-08-17T08:20:51.185Z,70.83
2022-08-17T08:21:19.934Z,71.12
2022-08-17T08:22:18.927Z,72.03
2022-08-17T08:23:18.918Z,71.23
2022-08-17T08:24:18.887Z,70.32
2022-08-17T08:25:18.908Z,71.12
2022-08-17T08:26:19.010Z,72.73
2022-08-17T08:27:18.877Z,73.43
2022-08-17T08:28:18.849Z,73.23
2022-08-17T08:29:18.867Z,73.03
2022-08-17T08:30:18.819Z,72.33
2022-08-17T08:31:18.807Z,72.93
2022-08-17T08:32:18.789Z,73.33
2022-08-17T08:33:18.786Z,73.93
2022-08-17T08:34:45.441Z,74.30
2022-08-17T08:35:19.770Z,75.30
2022-08-17T08:37:12.487Z,74.70
2022-08-17T08:37:30.386Z,74.10
2022-08-17T08:38:19.741Z,74.10
2022-08-17T08:39:18.709Z,74.70
2022-08-17T08:40:18.701Z,74.70
2022-08-17T08:41:18.672Z,73.90
2022-08-17T08:42:18.660Z,74.30
2022-08-17T08:43:18.901Z,73.19
2022-08-17T08:44:18.632Z,72.50
2022-08-17T08:45:18.641Z,72.89
2022-08-17T08:46:19.825Z,72.96
2022-08-17T08:47:18.590Z,72.46
2022-08-17T08:48:53.975Z,71.86
2022-08-17T08:49:19.586Z,72.56
2022-08-17T08:50:38.145Z,72.16
2022-08-17T08:51:19.653Z,71.86
2022-08-17T08:52:18.530Z,71.56
2022-08-17T08:53:18.521Z,71.46
2022-08-17T08:54:26.448Z,71.33
2022-08-17T08:55:19.512Z,70.92
2022-08-17T08:56:18.481Z,70.73
2022-08-17T08:57:32.647Z,70.73
2022-08-17T08:58:32.037Z,70.62
2022-08-17T08:59:19.450Z,70.32
2022-08-17T09:00:18.490Z,70.12
2022-08-17T09:01:18.452Z,69.73
2022-08-17T09:02:18.402Z,69.62
2022-08-17T09:03:18.394Z,69.43
2022-08-17T09:04:24.559Z,70.12
2022-08-17T09:05:19.373Z,70.32
2022-08-17T09:06:32.325Z,70.73
2022-08-17T09:07:19.335Z,69.93
2022-08-17T09:08:18.322Z,69.62
2022-08-17T09:09:18.325Z,70.73
2022-08-17T09:10:18.391Z,70.39
2022-08-17T09:11:18.306Z,70.19
2022-08-17T09:12:18.265Z,70.79
2022-08-17T09:13:18.273Z,71.09
2022-08-17T09:14:22.104Z,70.79
2022-08-17T09:15:19.234Z,68.79
2022-08-17T09:16:18.252Z,68.49
2022-08-17T09:17:18.459Z,68.69
2022-08-17T09:18:59.924Z,68.46
2022-08-17T09:19:19.200Z,68.26
2022-08-17T09:20:27.371Z,68.26
2022-08-17T09:21:19.175Z,68.26
2022-08-17T09:22:18.148Z,69.16
2022-08-17T09:23:18.131Z,69.66
2022-08-17T09:24:20.705Z,69.46
2022-08-17T09:25:18.094Z,68.96
2022-08-17T09:26:18.096Z,68.76
2022-08-17T09:27:18.068Z,68.56
2022-08-17T09:28:18.054Z,68.56
2022-08-17T09:29:18.047Z,68.76
2022-08-17T09:30:18.025Z,69.36
2022-08-17T09:31:18.045Z,68.86
2022-08-17T09:32:18.097Z,68.16
2022-08-17T09:33:18.001Z,68.16
2022-08-17T09:34:18.008Z,68.23
2022-08-17T09:35:17.968Z,68.13
2022-08-17T09:36:17.969Z,68.03
2022-08-17T09:37:17.918Z,68.52
2022-08-17T09:38:17.919Z,68.03
2022-08-17T09:39:17.898Z,67.63
2022-08-17T09:40:17.997Z,67.63
2022-08-17T09:41:17.888Z,68.23
2022-08-17T09:42:17.914Z,67.72
2022-08-17T09:43:17.838Z,67.72
2022-08-17T09:44:23.317Z,67.72
2022-08-17T09:45:18.812Z,68.03
2022-08-17T09:46:17.821Z,68.43
2022-08-17T09:47:17.789Z,67.99
2022-08-17T09:48:18.195Z,67.90
2022-08-17T09:49:21.863Z,67.80
2022-08-17T09:50:18.746Z,67.69
2022-08-17T09:51:18.749Z,68.19
2022-08-17T09:52:17.929Z,67.60
2022-08-17T09:53:17.701Z,67.30
2022-08-17T09:54:38.187Z,67.30
2022-08-17T09:55:18.671Z,68.10
2022-08-17T09:56:17.716Z,68.29
2022-08-17T09:57:29.957Z,68.40
2022-08-17T09:58:18.632Z,68.29
2022-08-17T09:59:17.632Z,69.20
2022-08-17T10:00:17.604Z,68.99
2022-08-17T10:01:17.677Z,67.40
2022-08-17T10:02:17.652Z,67.40
2022-08-17T10:03:17.563Z,67.49
2022-08-17T10:04:20.109Z,67.80
2022-08-17T10:05:17.531Z,68.10
2022-08-17T10:06:21.964Z,68.49
2022-08-17T10:07:17.503Z,68.70
2022-08-17T10:08:17.515Z,68.49
2022-08-17T10:09:17.483Z,68.59
2022-08-17T10:10:17.512Z,68.19
2022-08-17T10:11:17.556Z,68.10
2022-08-17T10:12:17.844Z,67.86
2022-08-17T10:13:18.356Z,68.06
2022-08-17T10:14:37.803Z,68.46
2022-08-17T10:15:18.393Z,67.86
2022-08-17T10:16:17.387Z,68.46
2022-08-17T10:17:17.395Z,67.76
2022-08-17T10:18:17.360Z,67.46
2022-08-17T10:19:17.354Z,67.36
2022-08-17T10:20:17.325Z,67.07
2022-08-17T10:21:17.323Z,67.16
2022-08-17T10:22:34.788Z,67.46
2022-08-17T10:23:18.285Z,67.57
2022-08-17T10:24:17.264Z,67.76
2022-08-17T10:25:22.824Z,66.77
2022-08-17T10:26:18.244Z,66.77
2022-08-17T10:27:17.256Z,66.36
2022-08-17T10:28:20.256Z,66.27
2022-08-17T10:29:17.213Z,66.17
2022-08-17T10:30:17.199Z,66.27
2022-08-17T10:31:34.381Z,66.56
2022-08-17T10:32:18.165Z,66.77
2022-08-17T10:33:17.147Z,67.26
2022-08-17T10:34:17.135Z,66.86
2022-08-17T10:35:17.120Z,66.06
2022-08-17T10:36:17.127Z,65.67
2022-08-17T10:37:17.094Z,65.67
2022-08-17T10:38:17.104Z,65.77
2022-08-17T10:39:17.067Z,65.97
2022-08-17T10:40:17.154Z,66.06
2022-08-17T10:41:17.058Z,66.36
2022-08-17T10:42:30.768Z,66.56
2022-08-17T10:43:18.018Z,66.56
2022-08-17T10:44:39.756Z,66.77
2022-08-17T10:45:17.990Z,66.86
2022-08-17T10:46:30.532Z,67.76
2022-08-17T10:47:17.957Z,68.06
2022-08-17T10:48:16.936Z,68.46
2022-08-17T10:49:16.938Z,69.46
2022-08-17T10:50:16.916Z,70.76
2022-08-17T10:51:16.889Z,70.86
2022-08-17T10:52:16.900Z,71.86
2022-08-17T10:53:19.909Z,73.49
2022-08-17T10:54:16.849Z,74.08
2022-08-17T10:55:16.850Z,73.49
2022-08-17T10:56:16.820Z,72.78
2022-08-17T10:57:16.982Z,72.69
2022-08-17T10:58:17.079Z,72.89
2022-08-17T10:59:16.830Z,73.49
2022-08-17T11:00:16.783Z,74.98
2022-08-17T11:01:16.769Z,74.98
2022-08-17T11:02:16.760Z,75.18
2022-08-17T11:03:16.730Z,74.68
2022-08-17T11:04:16.719Z,75.68
2022-08-17T11:05:16.700Z,76.08
2022-08-17T11:06:16.691Z,76.88
2022-08-17T11:07:16.691Z,77.88
2022-08-17T11:08:17.434Z,77.58
2022-08-17T11:09:16.658Z,76.88
2022-08-17T11:10:16.647Z,77.38
2022-08-17T11:11:16.613Z,77.58
2022-08-17T11:12:16.623Z,74.58
2022-08-17T11:13:16.581Z,74.19
2022-08-17T11:14:16.582Z,74.88
2022-08-17T11:15:16.563Z,76.28
2022-08-17T11:16:16.598Z,75.28
2022-08-17T11:17:16.553Z,74.58
2022-08-17T11:18:16.533Z,74.58
2022-08-17T11:19:16.509Z,75.28
2022-08-17T11:20:16.502Z,76.04
2022-08-17T11:21:16.474Z,75.05
2022-08-17T11:22:16.481Z,75.55
2022-08-17T11:23:16.449Z,75.35
2022-08-17T11:24:16.443Z,75.35
2022-08-17T11:25:16.423Z,75.15
2022-08-17T11:26:16.414Z,75.51
2022-08-17T11:27:16.411Z,73.02
2022-08-17T11:28:17.982Z,72.38
2022-08-17T11:29:16.374Z,73.25
2022-08-17T11:30:16.353Z,73.14
2022-08-17T11:31:16.344Z,72.02
2022-08-17T11:32:16.354Z,71.39
2022-08-17T11:33:16.324Z,69.16
2022-08-17T11:34:16.314Z,69.96
2022-08-17T11:35:16.277Z,68.63
2022-08-17T11:36:16.273Z,67.40
2022-08-17T11:37:16.282Z,66.81
2022-08-17T11:38:16.834Z,64.39
2022-08-17T11:39:16.243Z,64.69
2022-08-17T11:40:16.317Z,65.06
2022-08-17T11:41:16.196Z,63.76
2022-08-17T11:42:16.216Z,63.24
2022-08-17T11:43:16.175Z,62.34
2022-08-17T11:44:16.165Z,62.81
2022-08-17T11:45:31.937Z,61.52
2022-08-17T11:46:17.149Z,60.80
2022-08-17T11:47:16.204Z,60.30
2022-08-17T11:48:27.720Z,58.98
2022-08-17T11:49:17.097Z,58.09
2022-08-17T11:50:16.086Z,56.77
2022-08-17T11:51:16.087Z,56.28
2022-08-17T11:52:16.064Z,57.24
2022-08-17T11:53:16.068Z,55.76
2022-08-17T11:54:32.309Z,55.36
2022-08-17T11:55:34.500Z,55.63
2022-08-17T11:56:17.006Z,54.05
2022-08-17T11:57:16.007Z,54.35
2022-08-17T11:58:16.005Z,53.63
2022-08-17T11:59:15.970Z,54.42
2022-08-17T12:00:15.948Z,54.02
2022-08-17T12:01:16.231Z,53.53
2022-08-17T12:02:15.929Z,53.30
2022-08-17T12:03:16.010Z,52.44
2022-08-17T12:04:16.161Z,53.03
2022-08-17T12:05:15.879Z,53.13
2022-08-17T12:06:15.870Z,53.63
2022-08-17T12:07:15.900Z,54.52
2022-08-17T12:08:15.860Z,53.53
2022-08-17T12:09:15.852Z,52.73
2022-08-17T12:10:15.908Z,51.03
2022-08-17T12:11:15.858Z,51.82
2022-08-17T12:12:15.888Z,51.03
2022-08-17T12:13:15.810Z,51.65
2022-08-17T12:14:20.139Z,50.53
2022-08-17T12:15:16.750Z,50.63
2022-08-17T12:16:15.790Z,51.42
2022-08-17T12:17:25.890Z,50.43
2022-08-17T12:18:16.731Z,49.82
2022-08-17T12:19:15.710Z,49.82
2022-08-17T12:20:15.712Z,50.81
2022-08-17T12:21:15.672Z,49.40
2022-08-17T12:22:15.682Z,49.49
2022-08-17T12:23:15.661Z,50.29
2022-08-17T12:24:15.642Z,49.87
2022-08-17T12:25:15.633Z,48.49
2022-08-17T12:26:15.652Z,48.28
2022-08-17T12:27:15.600Z,48.28
2022-08-17T12:28:19.709Z,47.47
2022-08-17T12:29:18.239Z,47.87
2022-08-17T12:30:16.556Z,48.07
2022-08-17T12:31:15.553Z,47.57
2022-08-17T12:32:15.587Z,47.57
2022-08-17T12:33:25.236Z,47.57
2022-08-17T12:34:16.512Z,47.77
2022-08-17T12:35:15.484Z,47.60
2022-08-17T12:36:15.546Z,46.91
2022-08-17T12:37:15.506Z,47.10
2022-08-17T12:38:32.702Z,46.61
2022-08-17T12:39:21.365Z,46.83
2022-08-17T12:40:16.424Z,46.73
2022-08-17T12:41:15.395Z,46.44
2022-08-17T12:42:15.395Z,46.53
2022-08-17T12:43:15.386Z,46.93
2022-08-17T12:44:15.373Z,46.06
2022-08-17T12:45:15.355Z,47.05
2022-08-17T12:46:15.608Z,46.45
2022-08-17T12:47:20.976Z,46.45
2022-08-17T12:48:16.328Z,47.54
2022-08-17T12:49:15.286Z,47.54
2022-08-17T12:50:28.458Z,48.16
2022-08-17T12:51:16.267Z,47.96
2022-08-17T12:52:15.257Z,48.46
2022-08-17T12:53:15.259Z,48.75